Terminal Aerodrome Forecast
Issued by NWS

Home | Current Version | Previous Version | Text Only | Print | Product List | Glossary On
Versions: 1 2 3 4 5 6 7 8 9 10 11 12 13 14 15 16 17
000
FTUS43 KBIS 202300
TAFJMS
TAF
KJMS 202324Z 2100/2124 13009KT P6SM VCSH BKN130
     FM210300 12006KT P6SM -SHRA VCTS BKN050CB
     FM210800 12004KT P6SM BKN080
     FM211100 00000KT P6SM BKN080
     FM212100 31004KT P6SM SCT060=

USA.gov is the U.S. government's official web portal to all federal, state and local government web resources and services.